sensor_id;sensor_type;location;lat;lon;timestamp;pressure;altitude;pressure_sealevel;temperature;humidity
6032;BME280;3044;43.232;27.972;2023-08-06T00:00:00;45096.66;;;-143.84;99.81
6032;BME280;3044;43.232;27.972;2023-08-06T00:02:29;45068.13;;;-143.84;99.94
6032;BME280;3044;43.232;27.972;2023-08-06T00:04:56;45054.78;;;-143.84;99.79
6032;BME280;3044;43.232;27.972;2023-08-06T00:07:24;45068.13;;;-143.84;100.00
6032;BME280;3044;43.232;27.972;2023-08-06T00:09:51;45073.81;;;-143.84;99.69
6032;BME280;3044;43.232;27.972;2023-08-06T00:12:18;45077.63;;;-143.84;100.00
6032;BME280;3044;43.232;27.972;2023-08-06T00:14:45;45083.34;;;-143.84;99.63
6032;BME280;3044;43.232;27.972;2023-08-06T00:17:13;45089.06;;;-143.84;99.57
6032;BME280;3044;43.232;27.972;2023-08-06T00:19:41;45073.81;;;-143.84;99.50
6032;BME280;3044;43.232;27.972;2023-08-06T00:22:08;45081.44;;;-143.84;99.43
6032;BME280;3044;43.232;27.972;2023-08-06T00:24:35;45071.91;;;-143.84;99.44
6032;BME280;3044;43.232;27.972;2023-08-06T00:27:03;45104.28;;;-143.84;99.32
6032;BME280;3044;43.232;27.972;2023-08-06T00:29:30;45087.16;;;-143.84;99.46
6032;BME280;3044;43.232;27.972;2023-08-06T00:31:58;45075.72;;;-143.84;99.83
6032;BME280;3044;43.232;27.972;2023-08-06T00:34:25;45054.78;;;-143.84;99.42
6032;BME280;3044;43.232;27.972;2023-08-06T00:36:53;45083.34;;;-143.84;100.00
6032;BME280;3044;43.232;27.972;2023-08-06T00:39:20;45115.72;;;-143.84;99.83
6032;BME280;3044;43.232;27.972;2023-08-06T00:41:48;45083.34;;;-143.84;99.74
6032;BME280;3044;43.232;27.972;2023-08-06T00:44:15;45087.16;;;-143.84;99.91
6032;BME280;3044;43.232;27.972;2023-08-06T00:46:42;45075.72;;;-143.84;99.88
6032;BME280;3044;43.232;27.972;2023-08-06T00:49:10;45066.22;;;-143.84;99.67
6032;BME280;3044;43.232;27.972;2023-08-06T00:51:37;45052.88;;;-143.84;99.63
6032;BME280;3044;43.232;27.972;2023-08-06T00:54:06;45106.19;;;-143.84;99.60
6032;BME280;3044;43.232;27.972;2023-08-06T00:56:34;45092.88;;;-143.84;99.15
6032;BME280;3044;43.232;27.972;2023-08-06T00:59:02;45085.25;;;-143.84;99.17
6032;BME280;3044;43.232;27.972;2023-08-06T01:01:30;45083.34;;;-143.84;99.12
6032;BME280;3044;43.232;27.972;2023-08-06T01:03:57;45104.28;;;-143.84;99.21
6032;BME280;3044;43.232;27.972;2023-08-06T01:06:33;45066.22;;;-143.84;99.26
6032;BME280;3044;43.232;27.972;2023-08-06T01:09:09;45090.97;;;-143.84;99.13
6032;BME280;3044;43.232;27.972;2023-08-06T01:11:52;45075.72;;;-143.84;99.26
6032;BME280;3044;43.232;27.972;2023-08-06T01:14:26;45083.34;;;-143.84;99.40
6032;BME280;3044;43.232;27.972;2023-08-06T01:16:55;45083.34;;;-143.84;99.61
6032;BME280;3044;43.232;27.972;2023-08-06T01:19:24;45070.00;;;-143.84;99.74
6032;BME280;3044;43.232;27.972;2023-08-06T01:21:52;45073.81;;;-143.84;99.90
6032;BME280;3044;43.232;27.972;2023-08-06T01:24:20;45104.28;;;-143.84;99.85
6032;BME280;3044;43.232;27.972;2023-08-06T01:26:53;45058.59;;;-143.84;100.00
6032;BME280;3044;43.232;27.972;2023-08-06T01:29:25;45094.78;;;-143.84;99.89
6032;BME280;3044;43.232;27.972;2023-08-06T01:31:56;45100.47;;;-143.84;100.00
6032;BME280;3044;43.232;27.972;2023-08-06T01:34:27;45083.34;;;-143.84;100.00
6032;BME280;3044;43.232;27.972;2023-08-06T01:36:56;45100.47;;;-143.84;100.00
6032;BME280;3044;43.232;27.972;2023-08-06T01:39:23;45098.56;;;-143.84;100.00
6032;BME280;3044;43.232;27.972;2023-08-06T01:41:50;45060.50;;;-143.84;100.00
6032;BME280;3044;43.232;27.972;2023-08-06T01:44:18;45089.06;;;-143.84;99.86
6032;BME280;3044;43.232;27.972;2023-08-06T01:46:45;45104.28;;;-143.84;100.00
6032;BME280;3044;43.232;27.972;2023-08-06T01:49:12;45079.53;;;-143.84;100.00
6032;BME280;3044;43.232;27.972;2023-08-06T01:51:39;45075.72;;;-143.84;100.00
6032;BME280;3044;43.232;27.972;2023-08-06T01:54:08;45100.47;;;-143.84;100.00
6032;BME280;3044;43.232;27.972;2023-08-06T01:56:35;45104.28;;;-143.84;100.00
6032;BME280;3044;43.232;27.972;2023-08-06T01:59:02;45090.97;;;-143.84;100.00
6032;BME280;3044;43.232;27.972;2023-08-06T02:01:29;45073.81;;;-143.84;100.00
6032;BME280;3044;43.232;27.972;2023-08-06T02:03:56;45083.34;;;-143.84;99.69
6032;BME280;3044;43.232;27.972;2023-08-06T02:06:25;45102.38;;;-143.84;99.66
6032;BME280;3044;43.232;27.972;2023-08-06T02:08:52;45056.69;;;-143.84;99.75
6032;BME280;3044;43.232;27.972;2023-08-06T02:11:20;45075.72;;;-143.84;99.69
6032;BME280;3044;43.232;27.972;2023-08-06T02:13:47;45092.88;;;-143.84;100.00
6032;BME280;3044;43.232;27.972;2023-08-06T02:16:14;45087.16;;;-143.84;100.00
6032;BME280;3044;43.232;27.972;2023-08-06T02:18:41;45070.00;;;-143.84;100.00
6032;BME280;3044;43.232;27.972;2023-08-06T02:21:08;45064.31;;;-143.84;100.00
6032;BME280;3044;43.232;27.972;2023-08-06T02:23:35;45077.63;;;-143.84;100.00
6032;BME280;3044;43.232;27.972;2023-08-06T02:26:04;45077.63;;;-143.84;100.00
6032;BME280;3044;43.232;27.972;2023-08-06T02:28:32;45066.22;;;-143.84;100.00
6032;BME280;3044;43.232;27.972;2023-08-06T02:30:59;45085.25;;;-143.84;100.00
6032;BME280;3044;43.232;27.972;2023-08-06T02:33:26;45058.59;;;-143.84;100.00
6032;BME280;3044;43.232;27.972;2023-08-06T02:35:59;45087.16;;;-143.84;100.00
6032;BME280;3044;43.232;27.972;2023-08-06T02:38:26;45066.22;;;-143.84;100.00
6032;BME280;3044;43.232;27.972;2023-08-06T02:40:54;45102.38;;;-143.84;100.00
6032;BME280;3044;43.232;27.972;2023-08-06T02:43:21;45090.97;;;-143.84;100.00
6032;BME280;3044;43.232;27.972;2023-08-06T02:45:49;45081.44;;;-143.84;100.00
6032;BME280;3044;43.232;27.972;2023-08-06T02:48:16;45071.91;;;-143.84;100.00
6032;BME280;3044;43.232;27.972;2023-08-06T02:50:43;45052.88;;;-143.84;100.00
6032;BME280;3044;43.232;27.972;2023-08-06T02:53:10;45094.78;;;-143.84;100.00
6032;BME280;3044;43.232;27.972;2023-08-06T02:55:38;45100.47;;;-143.84;100.00
6032;BME280;3044;43.232;27.972;2023-08-06T02:58:05;45090.97;;;-143.84;100.00
6032;BME280;3044;43.232;27.972;2023-08-06T03:00:32;45085.25;;;-143.84;100.00
6032;BME280;3044;43.232;27.972;2023-08-06T03:03:00;45098.56;;;-143.84;100.00
6032;BME280;3044;43.232;27.972;2023-08-06T03:05:27;45070.00;;;-143.84;100.00
6032;BME280;3044;43.232;27.972;2023-08-06T03:07:54;45083.34;;;-143.84;100.00
6032;BME280;3044;43.232;27.972;2023-08-06T03:10:21;45077.63;;;-143.84;100.00
6032;BME280;3044;43.232;27.972;2023-08-06T03:12:48;45081.44;;;-143.84;100.00
6032;BME280;3044;43.232;27.972;2023-08-06T03:15:16;45090.97;;;-143.84;99.92
6032;BME280;3044;43.232;27.972;2023-08-06T03:17:43;45081.44;;;-143.84;99.59
6032;BME280;3044;43.232;27.972;2023-08-06T03:20:12;45098.56;;;-143.84;99.67
6032;BME280;3044;43.232;27.972;2023-08-06T03:22:39;45111.91;;;-143.84;99.50
6032;BME280;3044;43.232;27.972;2023-08-06T03:25:06;45089.06;;;-143.84;99.48
6032;BME280;3044;43.232;27.972;2023-08-06T03:27:33;45098.56;;;-143.84;99.40
6032;BME280;3044;43.232;27.972;2023-08-06T03:30:01;45081.44;;;-143.84;99.30
6032;BME280;3044;43.232;27.972;2023-08-06T03:32:28;45081.44;;;-143.84;99.40
6032;BME280;3044;43.232;27.972;2023-08-06T03:34:55;45085.25;;;-143.84;99.58
6032;BME280;3044;43.232;27.972;2023-08-06T03:37:23;45096.66;;;-143.84;99.38
6032;BME280;3044;43.232;27.972;2023-08-06T03:39:50;45089.06;;;-143.84;99.46
6032;BME280;3044;43.232;27.972;2023-08-06T03:42:17;45070.00;;;-143.84;99.63
6032;BME280;3044;43.232;27.972;2023-08-06T03:44:44;45090.97;;;-143.84;99.98
6032;BME280;3044;43.232;27.972;2023-08-06T03:47:13;45056.69;;;-143.84;99.61
6032;BME280;3044;43.232;27.972;2023-08-06T03:49:40;45068.13;;;-143.84;98.40
6032;BME280;3044;43.232;27.972;2023-08-06T03:52:07;45075.72;;;-143.84;96.54
6032;BME280;3044;43.232;27.972;2023-08-06T03:54:36;45079.53;;;-143.84;96.95
6032;BME280;3044;43.232;27.972;2023-08-06T03:57:03;45079.53;;;-143.84;97.43
6032;BME280;3044;43.232;27.972;2023-08-06T03:59:30;45096.66;;;-143.84;97.93
6032;BME280;3044;43.232;27.972;2023-08-06T04:01:57;45043.34;;;-143.84;97.79
6032;BME280;3044;43.232;27.972;2023-08-06T04:04:25;45113.81;;;-143.84;97.73
6032;BME280;3044;43.232;27.972;2023-08-06T04:06:52;45068.13;;;-143.84;96.07
6032;BME280;3044;43.232;27.972;2023-08-06T04:09:19;45090.97;;;-143.84;94.07
6032;BME280;3044;43.232;27.972;2023-08-06T04:11:47;45073.81;;;-143.84;92.71
6032;BME280;3044;43.232;27.972;2023-08-06T04:14:15;45052.88;;;-143.84;90.71
6032;BME280;3044;43.232;27.972;2023-08-06T04:16:42;45037.66;;;-143.84;89.45
6032;BME280;3044;43.232;27.972;2023-08-06T04:19:09;45050.97;;;-143.84;89.47
6032;BME280;3044;43.232;27.972;2023-08-06T04:21:36;45037.66;;;-143.84;88.42
6032;BME280;3044;43.232;27.972;2023-08-06T04:24:03;45033.84;;;-143.84;86.70
6032;BME280;3044;43.232;27.972;2023-08-06T04:26:30;45018.59;;;-143.84;85.08
6032;BME280;3044;43.232;27.972;2023-08-06T04:28:59;45026.22;;;-143.84;83.52
6032;BME280;3044;43.232;27.972;2023-08-06T04:31:26;45037.66;;;-143.84;81.59
6032;BME280;3044;43.232;27.972;2023-08-06T04:33:53;45024.31;;;-143.84;80.70
6032;BME280;3044;43.232;27.972;2023-08-06T04:36:20;45026.22;;;-143.84;79.69
6032;BME280;3044;43.232;27.972;2023-08-06T04:38:47;44999.56;;;-143.84;79.62
6032;BME280;3044;43.232;27.972;2023-08-06T04:41:14;45012.88;;;-143.84;79.11
6032;BME280;3044;43.232;27.972;2023-08-06T04:43:41;45031.94;;;-143.84;78.05
6032;BME280;3044;43.232;27.972;2023-08-06T04:46:10;45012.88;;;-143.84;77.05
6032;BME280;3044;43.232;27.972;2023-08-06T04:48:37;45018.59;;;-143.84;76.52
6032;BME280;3044;43.232;27.972;2023-08-06T04:51:04;45020.50;;;-143.84;76.86
6032;BME280;3044;43.232;27.972;2023-08-06T04:53:31;44995.75;;;-143.84;75.40
6032;BME280;3044;43.232;27.972;2023-08-06T04:55:58;44999.56;;;-143.84;75.48
6032;BME280;3044;43.232;27.972;2023-08-06T04:58:25;44999.56;;;-143.84;76.21
6032;BME280;3044;43.232;27.972;2023-08-06T05:00:53;45012.88;;;-143.84;75.87
6032;BME280;3044;43.232;27.972;2023-08-06T05:03:22;44999.56;;;-143.84;76.25
6032;BME280;3044;43.232;27.972;2023-08-06T05:05:49;45043.34;;;-143.84;76.13
6032;BME280;3044;43.232;27.972;2023-08-06T05:08:16;45031.94;;;-143.84;74.72
6032;BME280;3044;43.232;27.972;2023-08-06T05:10:44;45018.59;;;-143.84;75.39
6032;BME280;3044;43.232;27.972;2023-08-06T05:13:11;45012.88;;;-143.84;74.28
6032;BME280;3044;43.232;27.972;2023-08-06T05:15:38;45016.69;;;-143.84;75.41
6032;BME280;3044;43.232;27.972;2023-08-06T05:18:08;45028.13;;;-143.84;76.35
6032;BME280;3044;43.232;27.972;2023-08-06T05:20:37;45014.78;;;-143.84;76.88
6032;BME280;3044;43.232;27.972;2023-08-06T05:23:05;45005.28;;;-143.84;77.88
6032;BME280;3044;43.232;27.972;2023-08-06T05:25:33;45003.38;;;-143.84;78.54
6032;BME280;3044;43.232;27.972;2023-08-06T05:28:01;45031.94;;;-143.84;78.99
6032;BME280;3044;43.232;27.972;2023-08-06T05:30:28;45022.41;;;-143.84;79.97
6032;BME280;3044;43.232;27.972;2023-08-06T05:32:55;45022.41;;;-143.84;81.04
6032;BME280;3044;43.232;27.972;2023-08-06T05:35:23;45014.78;;;-143.84;78.95
6032;BME280;3044;43.232;27.972;2023-08-06T05:37:51;45041.44;;;-143.84;78.36
6032;BME280;3044;43.232;27.972;2023-08-06T05:40:18;45022.41;;;-143.84;79.04
6032;BME280;3044;43.232;27.972;2023-08-06T05:42:45;45049.06;;;-143.84;79.51
6032;BME280;3044;43.232;27.972;2023-08-06T05:45:13;45041.44;;;-143.84;79.74
6032;BME280;3044;43.232;27.972;2023-08-06T05:47:40;45062.41;;;-143.84;79.87
6032;BME280;3044;43.232;27.972;2023-08-06T05:50:08;45010.97;;;-143.84;80.23
6032;BME280;3044;43.232;27.972;2023-08-06T05:52:35;45003.38;;;-143.84;79.68
6032;BME280;3044;43.232;27.972;2023-08-06T05:55:05;45033.84;;;-143.84;79.31
6032;BME280;3044;43.232;27.972;2023-08-06T05:57:32;45030.03;;;-143.84;80.00
6032;BME280;3044;43.232;27.972;2023-08-06T06:00:00;45043.34;;;-143.84;80.21
6032;BME280;3044;43.232;27.972;2023-08-06T06:02:27;45028.13;;;-143.84;81.42
6032;BME280;3044;43.232;27.972;2023-08-06T06:04:54;45010.97;;;-143.84;82.35
6032;BME280;3044;43.232;27.972;2023-08-06T06:07:21;45054.78;;;-143.84;81.20
6032;BME280;3044;43.232;27.972;2023-08-06T06:09:48;45018.59;;;-143.84;81.80
6032;BME280;3044;43.232;27.972;2023-08-06T06:12:16;45039.53;;;-143.84;80.90
6032;BME280;3044;43.232;27.972;2023-08-06T06:14:43;45041.44;;;-143.84;80.13
6032;BME280;3044;43.232;27.972;2023-08-06T06:17:11;45016.69;;;-143.84;79.99
6032;BME280;3044;43.232;27.972;2023-08-06T06:19:38;45024.31;;;-143.84;79.57
6032;BME280;3044;43.232;27.972;2023-08-06T06:22:05;45018.59;;;-143.84;77.94
6032;BME280;3044;43.232;27.972;2023-08-06T06:24:32;45007.19;;;-143.84;78.04
6032;BME280;3044;43.232;27.972;2023-08-06T06:27:00;45003.38;;;-143.84;77.71
6032;BME280;3044;43.232;27.972;2023-08-06T06:29:28;45030.03;;;-143.84;76.87
6032;BME280;3044;43.232;27.972;2023-08-06T06:31:56;45003.38;;;-143.84;74.81
6032;BME280;3044;43.232;27.972;2023-08-06T06:34:23;44988.13;;;-143.84;75.00
6032;BME280;3044;43.232;27.972;2023-08-06T06:36:50;45010.97;;;-143.84;72.72
6032;BME280;3044;43.232;27.972;2023-08-06T06:39:17;45005.28;;;-143.84;73.03
6032;BME280;3044;43.232;27.972;2023-08-06T06:41:44;45009.09;;;-143.84;74.13
6032;BME280;3044;43.232;27.972;2023-08-06T06:44:13;45010.97;;;-143.84;75.43
6032;BME280;3044;43.232;27.972;2023-08-06T06:46:42;44991.94;;;-143.84;76.66
6032;BME280;3044;43.232;27.972;2023-08-06T06:49:09;45022.41;;;-143.84;77.02
6032;BME280;3044;43.232;27.972;2023-08-06T06:51:36;45020.50;;;-143.84;74.01
6032;BME280;3044;43.232;27.972;2023-08-06T06:54:03;45009.09;;;-143.84;73.36
6032;BME280;3044;43.232;27.972;2023-08-06T06:56:30;44999.56;;;-143.84;73.72
6032;BME280;3044;43.232;27.972;2023-08-06T06:58:57;45014.78;;;-143.84;73.92
6032;BME280;3044;43.232;27.972;2023-08-06T07:01:24;45030.03;;;-143.84;74.29
6032;BME280;3044;43.232;27.972;2023-08-06T07:03:53;44990.03;;;-143.84;75.18
6032;BME280;3044;43.232;27.972;2023-08-06T07:06:20;45014.78;;;-143.84;76.06
6032;BME280;3044;43.232;27.972;2023-08-06T07:08:47;45010.97;;;-143.84;77.21
6032;BME280;3044;43.232;27.972;2023-08-06T07:11:14;44997.66;;;-143.84;77.59
6032;BME280;3044;43.232;27.972;2023-08-06T07:13:41;45043.34;;;-143.84;77.89
6032;BME280;3044;43.232;27.972;2023-08-06T07:16:08;45020.50;;;-143.84;77.00
6032;BME280;3044;43.232;27.972;2023-08-06T07:18:35;45028.13;;;-143.84;77.08
6032;BME280;3044;43.232;27.972;2023-08-06T07:21:04;45028.13;;;-143.84;76.09
6032;BME280;3044;43.232;27.972;2023-08-06T07:23:31;45033.84;;;-143.84;76.47
6032;BME280;3044;43.232;27.972;2023-08-06T07:25:58;45033.84;;;-143.84;75.98
6032;BME280;3044;43.232;27.972;2023-08-06T07:28:25;45010.97;;;-143.84;73.70
6032;BME280;3044;43.232;27.972;2023-08-06T07:30:52;44988.13;;;-143.84;73.22
6032;BME280;3044;43.232;27.972;2023-08-06T07:33:20;44984.31;;;-143.84;72.25
6032;BME280;3044;43.232;27.972;2023-08-06T07:35:47;45001.47;;;-143.84;71.34
6032;BME280;3044;43.232;27.972;2023-08-06T07:38:15;45009.09;;;-143.84;73.28
6032;BME280;3044;43.232;27.972;2023-08-06T07:40:42;44999.56;;;-143.84;74.55
6032;BME280;3044;43.232;27.972;2023-08-06T07:43:09;44978.63;;;-143.84;71.50
6032;BME280;3044;43.232;27.972;2023-08-06T07:45:37;44982.41;;;-143.84;71.45
6032;BME280;3044;43.232;27.972;2023-08-06T07:48:04;45003.38;;;-143.84;72.19
6032;BME280;3044;43.232;27.972;2023-08-06T07:50:32;44993.84;;;-143.84;74.30
6032;BME280;3044;43.232;27.972;2023-08-06T07:52:59;45005.28;;;-143.84;74.95
6032;BME280;3044;43.232;27.972;2023-08-06T07:55:27;44986.22;;;-143.84;75.45
6032;BME280;3044;43.232;27.972;2023-08-06T07:57:54;45007.19;;;-143.84;75.22
6032;BME280;3044;43.232;27.972;2023-08-06T08:00:21;45016.69;;;-143.84;74.85
6032;BME280;3044;43.232;27.972;2023-08-06T08:02:49;44990.03;;;-143.84;73.69
6032;BME280;3044;43.232;27.972;2023-08-06T08:05:16;44999.56;;;-143.84;74.57
6032;BME280;3044;43.232;27.972;2023-08-06T08:07:43;44965.28;;;-143.84;72.67
6032;BME280;3044;43.232;27.972;2023-08-06T08:10:10;44976.72;;;-143.84;72.31
6032;BME280;3044;43.232;27.972;2023-08-06T08:12:39;44965.28;;;-143.84;70.91
6032;BME280;3044;43.232;27.972;2023-08-06T08:15:06;44976.72;;;-143.84;71.00
6032;BME280;3044;43.232;27.972;2023-08-06T08:17:34;44976.72;;;-143.84;71.62
6032;BME280;3044;43.232;27.972;2023-08-06T08:20:01;44971.00;;;-143.84;70.14
6032;BME280;3044;43.232;27.972;2023-08-06T08:22:28;44957.66;;;-143.84;69.69
6032;BME280;3044;43.232;27.972;2023-08-06T08:24:55;44959.56;;;-143.84;68.58
6032;BME280;3044;43.232;27.972;2023-08-06T08:27:22;45009.09;;;-143.84;66.48
6032;BME280;3044;43.232;27.972;2023-08-06T08:29:51;44963.38;;;-143.84;67.95
6032;BME280;3044;43.232;27.972;2023-08-06T08:32:18;44957.66;;;-143.84;68.59
6032;BME280;3044;43.232;27.972;2023-08-06T08:34:45;44976.72;;;-143.84;64.39
6032;BME280;3044;43.232;27.972;2023-08-06T08:37:13;44982.41;;;-143.84;64.66
6032;BME280;3044;43.232;27.972;2023-08-06T08:39:40;44978.63;;;-143.84;66.71
6032;BME280;3044;43.232;27.972;2023-08-06T08:42:08;44963.38;;;-143.84;67.90
6032;BME280;3044;43.232;27.972;2023-08-06T08:44:36;44971.00;;;-143.84;66.95
6032;BME280;3044;43.232;27.972;2023-08-06T08:47:06;44993.84;;;-143.84;67.78
6032;BME280;3044;43.232;27.972;2023-08-06T08:49:35;44990.03;;;-143.84;66.18
6032;BME280;3044;43.232;27.972;2023-08-06T08:52:04;44953.88;;;-143.84;66.81
6032;BME280;3044;43.232;27.972;2023-08-06T08:54:33;44972.91;;;-143.84;67.11
6032;BME280;3044;43.232;27.972;2023-08-06T08:57:01;44980.53;;;-143.84;69.98
6032;BME280;3044;43.232;27.972;2023-08-06T08:59:28;44974.81;;;-143.84;67.67
6032;BME280;3044;43.232;27.972;2023-08-06T09:01:56;44953.88;;;-143.84;68.92
6032;BME280;3044;43.232;27.972;2023-08-06T09:04:26;44978.63;;;-143.84;64.88
6032;BME280;3044;43.232;27.972;2023-08-06T09:06:55;44955.75;;;-143.84;66.48
6032;BME280;3044;43.232;27.972;2023-08-06T09:09:26;44971.00;;;-143.84;63.94
6032;BME280;3044;43.232;27.972;2023-08-06T09:12:00;44972.91;;;-143.84;64.77
6032;BME280;3044;43.232;27.972;2023-08-06T09:14:27;44974.81;;;-143.84;68.12
6032;BME280;3044;43.232;27.972;2023-08-06T09:16:54;44955.75;;;-143.84;64.94
6032;BME280;3044;43.232;27.972;2023-08-06T09:19:21;44963.38;;;-143.84;66.26
6032;BME280;3044;43.232;27.972;2023-08-06T09:21:51;44986.22;;;-143.84;69.13
6032;BME280;3044;43.232;27.972;2023-08-06T09:24:18;44984.31;;;-143.84;64.88
6032;BME280;3044;43.232;27.972;2023-08-06T09:26:45;44967.19;;;-143.84;62.36
6032;BME280;3044;43.232;27.972;2023-08-06T09:29:12;44972.91;;;-143.84;63.74
6032;BME280;3044;43.232;27.972;2023-08-06T09:31:41;44959.56;;;-143.84;65.03
6032;BME280;3044;43.232;27.972;2023-08-06T09:34:11;44972.91;;;-143.84;61.38
6032;BME280;3044;43.232;27.972;2023-08-06T09:36:40;44955.75;;;-143.84;64.92
6032;BME280;3044;43.232;27.972;2023-08-06T09:39:14;44950.06;;;-143.84;63.84
6032;BME280;3044;43.232;27.972;2023-08-06T09:41:41;44953.88;;;-143.84;59.77
6032;BME280;3044;43.232;27.972;2023-08-06T09:44:16;44940.53;;;-143.84;61.89
6032;BME280;3044;43.232;27.972;2023-08-06T09:46:47;44942.44;;;-143.84;61.15
6032;BME280;3044;43.232;27.972;2023-08-06T09:49:15;44951.97;;;-143.84;63.71
6032;BME280;3044;43.232;27.972;2023-08-06T09:51:42;44984.31;;;-143.84;62.88
6032;BME280;3044;43.232;27.972;2023-08-06T09:54:12;44950.06;;;-143.84;64.11
6032;BME280;3044;43.232;27.972;2023-08-06T09:56:42;44961.47;;;-143.84;62.74
6032;BME280;3044;43.232;27.972;2023-08-06T09:59:09;44972.91;;;-143.84;63.94
6032;BME280;3044;43.232;27.972;2023-08-06T10:01:37;44951.97;;;-143.84;65.00
6032;BME280;3044;43.232;27.972;2023-08-06T10:04:05;44980.53;;;-143.84;62.64
6032;BME280;3044;43.232;27.972;2023-08-06T10:06:34;45009.09;;;-143.84;63.31
6032;BME280;3044;43.232;27.972;2023-08-06T10:09:02;44957.66;;;-143.84;64.02
6032;BME280;3044;43.232;27.972;2023-08-06T10:11:30;44972.91;;;-143.84;64.81
6032;BME280;3044;43.232;27.972;2023-08-06T10:14:04;44944.34;;;-143.84;63.26
6032;BME280;3044;43.232;27.972;2023-08-06T10:16:32;44951.97;;;-143.84;63.65
6032;BME280;3044;43.232;27.972;2023-08-06T10:19:01;44946.25;;;-143.84;64.37
6032;BME280;3044;43.232;27.972;2023-08-06T10:21:28;44927.19;;;-143.84;63.36
6032;BME280;3044;43.232;27.972;2023-08-06T10:23:57;44991.94;;;-143.84;62.40
6032;BME280;3044;43.232;27.972;2023-08-06T10:26:28;44932.91;;;-143.84;64.45
6032;BME280;3044;43.232;27.972;2023-08-06T10:28:56;44946.25;;;-143.84;66.60
6032;BME280;3044;43.232;27.972;2023-08-06T10:31:54;44953.88;;;-143.84;65.10
6032;BME280;3044;43.232;27.972;2023-08-06T10:34:21;44974.81;;;-143.84;63.56
6032;BME280;3044;43.232;27.972;2023-08-06T10:36:49;44974.81;;;-143.84;68.48
6032;BME280;3044;43.232;27.972;2023-08-06T10:39:16;44969.09;;;-143.84;65.94
6032;BME280;3044;43.232;27.972;2023-08-06T10:41:43;44953.88;;;-143.84;63.86
6032;BME280;3044;43.232;27.972;2023-08-06T10:44:11;44948.16;;;-143.84;65.11
6032;BME280;3044;43.232;27.972;2023-08-06T10:46:38;44974.81;;;-143.84;64.75
6032;BME280;3044;43.232;27.972;2023-08-06T10:49:06;44984.31;;;-143.84;64.94
6032;BME280;3044;43.232;27.972;2023-08-06T10:51:34;44972.91;;;-143.84;64.35
6032;BME280;3044;43.232;27.972;2023-08-06T10:54:02;44990.03;;;-143.84;65.17
6032;BME280;3044;43.232;27.972;2023-08-06T10:56:29;44957.66;;;-143.84;65.51
6032;BME280;3044;43.232;27.972;2023-08-06T10:58:57;44963.38;;;-143.84;68.24
6032;BME280;3044;43.232;27.972;2023-08-06T11:01:24;44974.81;;;-143.84;66.62
6032;BME280;3044;43.232;27.972;2023-08-06T11:03:55;44984.31;;;-143.84;67.82
6032;BME280;3044;43.232;27.972;2023-08-06T11:06:24;44980.53;;;-143.84;67.47
6032;BME280;3044;43.232;27.972;2023-08-06T11:08:54;44976.72;;;-143.84;66.56
6032;BME280;3044;43.232;27.972;2023-08-06T11:11:23;44986.22;;;-143.84;67.61
6032;BME280;3044;43.232;27.972;2023-08-06T11:13:50;44965.28;;;-143.84;68.49
6032;BME280;3044;43.232;27.972;2023-08-06T11:16:19;44988.13;;;-143.84;70.87
6032;BME280;3044;43.232;27.972;2023-08-06T11:18:46;45014.78;;;-143.84;71.44
6032;BME280;3044;43.232;27.972;2023-08-06T11:21:13;44997.66;;;-143.84;72.23
6032;BME280;3044;43.232;27.972;2023-08-06T11:23:42;44997.66;;;-143.84;72.83
6032;BME280;3044;43.232;27.972;2023-08-06T11:26:09;44978.63;;;-143.84;73.72
6032;BME280;3044;43.232;27.972;2023-08-06T11:28:36;45012.88;;;-143.84;73.20
6032;BME280;3044;43.232;27.972;2023-08-06T11:31:03;44991.94;;;-143.84;74.23
6032;BME280;3044;43.232;27.972;2023-08-06T11:33:31;44976.72;;;-143.84;74.84
6032;BME280;3044;43.232;27.972;2023-08-06T11:35:59;44986.22;;;-143.84;74.16
6032;BME280;3044;43.232;27.972;2023-08-06T11:38:27;45005.28;;;-143.84;74.59
6032;BME280;3044;43.232;27.972;2023-08-06T11:40:55;44978.63;;;-143.84;74.01
6032;BME280;3044;43.232;27.972;2023-08-06T11:43:23;44995.75;;;-143.84;75.05
6032;BME280;3044;43.232;27.972;2023-08-06T11:45:50;45001.47;;;-143.84;75.52
6032;BME280;3044;43.232;27.972;2023-08-06T11:48:19;44955.75;;;-143.84;73.39
6032;BME280;3044;43.232;27.972;2023-08-06T11:50:46;44969.09;;;-143.84;72.68
6032;BME280;3044;43.232;27.972;2023-08-06T11:53:14;44997.66;;;-143.84;73.92
6032;BME280;3044;43.232;27.972;2023-08-06T11:55:42;45012.88;;;-143.84;74.71
6032;BME280;3044;43.232;27.972;2023-08-06T11:58:10;44988.13;;;-143.84;77.20
6032;BME280;3044;43.232;27.972;2023-08-06T12:00:39;45028.13;;;-143.84;77.49
6032;BME280;3044;43.232;27.972;2023-08-06T12:03:06;45030.03;;;-143.84;79.45
6032;BME280;3044;43.232;27.972;2023-08-06T12:05:33;45016.69;;;-143.84;81.62
6032;BME280;3044;43.232;27.972;2023-08-06T12:08:01;45014.78;;;-143.84;84.72
6032;BME280;3044;43.232;27.972;2023-08-06T12:10:30;45054.78;;;-143.84;87.44
6032;BME280;3044;43.232;27.972;2023-08-06T12:12:58;45028.13;;;-143.84;89.27
6032;BME280;3044;43.232;27.972;2023-08-06T12:15:26;45045.25;;;-143.84;91.32
6032;BME280;3044;43.232;27.972;2023-08-06T12:17:53;45024.31;;;-143.84;89.78
6032;BME280;3044;43.232;27.972;2023-08-06T12:20:20;45039.53;;;-143.84;84.89
6032;BME280;3044;43.232;27.972;2023-08-06T12:22:47;45037.66;;;-143.84;77.37
6032;BME280;3044;43.232;27.972;2023-08-06T12:25:15;45039.53;;;-143.84;73.63
6032;BME280;3044;43.232;27.972;2023-08-06T12:27:43;45018.59;;;-143.84;71.40
6032;BME280;3044;43.232;27.972;2023-08-06T12:30:12;45037.66;;;-143.84;72.71
6032;BME280;3044;43.232;27.972;2023-08-06T12:32:40;45009.09;;;-143.84;73.34
6032;BME280;3044;43.232;27.972;2023-08-06T12:35:10;45050.97;;;-143.84;73.33
6032;BME280;3044;43.232;27.972;2023-08-06T12:37:39;45039.53;;;-143.84;72.90
6032;BME280;3044;43.232;27.972;2023-08-06T12:40:10;45035.75;;;-143.84;74.44
6032;BME280;3044;43.232;27.972;2023-08-06T12:42:37;45068.13;;;-143.84;74.12
6032;BME280;3044;43.232;27.972;2023-08-06T12:45:05;45033.84;;;-143.84;74.28
6032;BME280;3044;43.232;27.972;2023-08-06T12:47:32;45028.13;;;-143.84;74.47
6032;BME280;3044;43.232;27.972;2023-08-06T12:50:00;45022.41;;;-143.84;76.60